sensor_id;sensor_type;location;lat;lon;timestamp;P1;durP1;ratioP1;P2;durP2;ratioP2
16510;SDS011;8368;48.772;8.754;2023-12-22T00:01:07;2.53;;;1.80;;
16510;SDS011;8368;48.772;8.754;2023-12-22T00:03:33;12.53;;;4.97;;
16510;SDS011;8368;48.772;8.754;2023-12-22T00:05:58;2.43;;;2.10;;
16510;SDS011;8368;48.772;8.754;2023-12-22T00:08:24;2.40;;;1.60;;
16510;SDS011;8368;48.772;8.754;2023-12-22T00:10:50;6.13;;;1.90;;
16510;SDS011;8368;48.772;8.754;2023-12-22T00:13:15;6.53;;;2.10;;
16510;SDS011;8368;48.772;8.754;2023-12-22T00:15:41;6.17;;;2.53;;
16510;SDS011;8368;48.772;8.754;2023-12-22T00:18:09;2.87;;;1.27;;
16510;SDS011;8368;48.772;8.754;2023-12-22T00:20:35;3.23;;;2.30;;
16510;SDS011;8368;48.772;8.754;2023-12-22T00:23:01;5.63;;;1.67;;
16510;SDS011;8368;48.772;8.754;2023-12-22T00:25:26;3.30;;;2.00;;
16510;SDS011;8368;48.772;8.754;2023-12-22T00:27:52;5.90;;;1.70;;
16510;SDS011;8368;48.772;8.754;2023-12-22T00:30:17;5.87;;;1.83;;
16510;SDS011;8368;48.772;8.754;2023-12-22T00:32:43;2.20;;;1.17;;
16510;SDS011;8368;48.772;8.754;2023-12-22T00:35:08;3.63;;;1.60;;
16510;SDS011;8368;48.772;8.754;2023-12-22T00:37:34;2.17;;;1.00;;
16510;SDS011;8368;48.772;8.754;2023-12-22T00:40:00;3.23;;;1.60;;
16510;SDS011;8368;48.772;8.754;2023-12-22T00:42:25;4.63;;;1.93;;
16510;SDS011;8368;48.772;8.754;2023-12-22T00:44:51;4.03;;;1.87;;
16510;SDS011;8368;48.772;8.754;2023-12-22T00:47:17;0.93;;;0.93;;
16510;SDS011;8368;48.772;8.754;2023-12-22T00:49:42;1.33;;;1.23;;
16510;SDS011;8368;48.772;8.754;2023-12-22T00:52:08;4.63;;;2.13;;
16510;SDS011;8368;48.772;8.754;2023-12-22T00:54:34;2.33;;;2.10;;
16510;SDS011;8368;48.772;8.754;2023-12-22T00:56:59;5.87;;;2.63;;
16510;SDS011;8368;48.772;8.754;2023-12-22T00:59:25;3.23;;;2.23;;
16510;SDS011;8368;48.772;8.754;2023-12-22T01:01:51;3.40;;;1.20;;
16510;SDS011;8368;48.772;8.754;2023-12-22T01:04:16;4.93;;;1.50;;
16510;SDS011;8368;48.772;8.754;2023-12-22T01:06:42;3.40;;;1.47;;
16510;SDS011;8368;48.772;8.754;2023-12-22T01:09:07;4.00;;;1.93;;
16510;SDS011;8368;48.772;8.754;2023-12-22T01:11:33;6.00;;;2.93;;
16510;SDS011;8368;48.772;8.754;2023-12-22T01:13:59;3.40;;;0.87;;
16510;SDS011;8368;48.772;8.754;2023-12-22T01:16:24;2.87;;;1.20;;
16510;SDS011;8368;48.772;8.754;2023-12-22T01:18:50;1.20;;;1.10;;
16510;SDS011;8368;48.772;8.754;2023-12-22T01:21:16;1.60;;;1.50;;
16510;SDS011;8368;48.772;8.754;2023-12-22T01:23:42;3.20;;;1.43;;
16510;SDS011;8368;48.772;8.754;2023-12-22T01:26:07;1.70;;;1.03;;
16510;SDS011;8368;48.772;8.754;2023-12-22T01:28:33;1.23;;;1.10;;
16510;SDS011;8368;48.772;8.754;2023-12-22T01:31:00;0.70;;;0.70;;
16510;SDS011;8368;48.772;8.754;2023-12-22T01:33:25;1.77;;;0.90;;
16510;SDS011;8368;48.772;8.754;2023-12-22T01:35:51;3.70;;;1.10;;
16510;SDS011;8368;48.772;8.754;2023-12-22T01:38:17;1.13;;;0.90;;
16510;SDS011;8368;48.772;8.754;2023-12-22T01:40:42;4.27;;;2.47;;
16510;SDS011;8368;48.772;8.754;2023-12-22T01:43:08;8.13;;;4.13;;
16510;SDS011;8368;48.772;8.754;2023-12-22T01:45:33;3.07;;;1.60;;
16510;SDS011;8368;48.772;8.754;2023-12-22T01:47:59;4.67;;;1.77;;
16510;SDS011;8368;48.772;8.754;2023-12-22T01:50:25;3.53;;;2.63;;
16510;SDS011;8368;48.772;8.754;2023-12-22T01:52:51;4.70;;;1.70;;
16510;SDS011;8368;48.772;8.754;2023-12-22T01:55:17;2.07;;;1.10;;
16510;SDS011;8368;48.772;8.754;2023-12-22T01:57:43;0.60;;;0.50;;
16510;SDS011;8368;48.772;8.754;2023-12-22T02:00:09;1.57;;;0.90;;
16510;SDS011;8368;48.772;8.754;2023-12-22T02:02:36;1.23;;;1.07;;
16510;SDS011;8368;48.772;8.754;2023-12-22T02:05:03;2.40;;;1.20;;
16510;SDS011;8368;48.772;8.754;2023-12-22T02:07:29;8.80;;;3.47;;
16510;SDS011;8368;48.772;8.754;2023-12-22T02:09:55;1.80;;;1.67;;
16510;SDS011;8368;48.772;8.754;2023-12-22T02:12:21;4.73;;;1.43;;
16510;SDS011;8368;48.772;8.754;2023-12-22T02:14:47;2.10;;;0.83;;
16510;SDS011;8368;48.772;8.754;2023-12-22T02:17:33;2.23;;;1.00;;
16510;SDS011;8368;48.772;8.754;2023-12-22T02:20:09;1.20;;;1.10;;
16510;SDS011;8368;48.772;8.754;2023-12-22T02:22:35;4.73;;;1.43;;
16510;SDS011;8368;48.772;8.754;2023-12-22T02:25:00;3.67;;;1.03;;
16510;SDS011;8368;48.772;8.754;2023-12-22T02:30:14;3.90;;;1.77;;
16510;SDS011;8368;48.772;8.754;2023-12-22T02:32:47;0.80;;;0.80;;
16510;SDS011;8368;48.772;8.754;2023-12-22T02:35:16;1.83;;;1.00;;
16510;SDS011;8368;48.772;8.754;2023-12-22T02:37:47;1.47;;;1.10;;
16510;SDS011;8368;48.772;8.754;2023-12-22T02:40:14;1.30;;;1.20;;
16510;SDS011;8368;48.772;8.754;2023-12-22T02:42:40;2.97;;;2.00;;
16510;SDS011;8368;48.772;8.754;2023-12-22T02:45:06;2.53;;;1.30;;
16510;SDS011;8368;48.772;8.754;2023-12-22T02:47:39;5.10;;;1.17;;
16510;SDS011;8368;48.772;8.754;2023-12-22T02:50:05;4.37;;;1.10;;
16510;SDS011;8368;48.772;8.754;2023-12-22T02:52:31;1.23;;;0.90;;
16510;SDS011;8368;48.772;8.754;2023-12-22T02:54:57;2.63;;;0.80;;
16510;SDS011;8368;48.772;8.754;2023-12-22T02:57:22;4.57;;;1.30;;
16510;SDS011;8368;48.772;8.754;2023-12-22T02:59:48;5.37;;;1.17;;
16510;SDS011;8368;48.772;8.754;2023-12-22T03:02:14;5.00;;;1.03;;
16510;SDS011;8368;48.772;8.754;2023-12-22T03:04:39;3.13;;;0.80;;
16510;SDS011;8368;48.772;8.754;2023-12-22T03:07:05;2.77;;;1.00;;
16510;SDS011;8368;48.772;8.754;2023-12-22T03:09:31;3.67;;;1.13;;
16510;SDS011;8368;48.772;8.754;2023-12-22T03:11:57;4.47;;;1.07;;
16510;SDS011;8368;48.772;8.754;2023-12-22T03:14:27;2.07;;;0.87;;
16510;SDS011;8368;48.772;8.754;2023-12-22T03:16:54;8.70;;;1.20;;
16510;SDS011;8368;48.772;8.754;2023-12-22T03:19:19;1.37;;;0.80;;
16510;SDS011;8368;48.772;8.754;2023-12-22T03:21:45;4.13;;;0.87;;
16510;SDS011;8368;48.772;8.754;2023-12-22T03:24:10;4.20;;;0.83;;
16510;SDS011;8368;48.772;8.754;2023-12-22T03:26:36;0.70;;;0.70;;
16510;SDS011;8368;48.772;8.754;2023-12-22T03:29:01;4.50;;;1.30;;
16510;SDS011;8368;48.772;8.754;2023-12-22T03:31:27;7.93;;;1.00;;
16510;SDS011;8368;48.772;8.754;2023-12-22T03:33:52;4.80;;;1.20;;
16510;SDS011;8368;48.772;8.754;2023-12-22T03:36:18;3.60;;;0.90;;
16510;SDS011;8368;48.772;8.754;2023-12-22T03:38:43;3.30;;;0.80;;
16510;SDS011;8368;48.772;8.754;2023-12-22T03:41:09;3.50;;;1.20;;
16510;SDS011;8368;48.772;8.754;2023-12-22T03:43:34;4.80;;;1.20;;
16510;SDS011;8368;48.772;8.754;2023-12-22T03:46:00;3.80;;;1.40;;
16510;SDS011;8368;48.772;8.754;2023-12-22T03:48:25;3.07;;;1.10;;
16510;SDS011;8368;48.772;8.754;2023-12-22T03:50:51;2.83;;;1.00;;
16510;SDS011;8368;48.772;8.754;2023-12-22T03:53:16;4.37;;;1.23;;
16510;SDS011;8368;48.772;8.754;2023-12-22T03:55:42;7.73;;;1.20;;
16510;SDS011;8368;48.772;8.754;2023-12-22T03:58:07;1.63;;;0.70;;
16510;SDS011;8368;48.772;8.754;2023-12-22T04:00:33;3.80;;;1.20;;
16510;SDS011;8368;48.772;8.754;2023-12-22T04:02:59;2.30;;;1.20;;
16510;SDS011;8368;48.772;8.754;2023-12-22T04:05:25;6.13;;;1.23;;
16510;SDS011;8368;48.772;8.754;2023-12-22T04:07:50;3.70;;;1.00;;
16510;SDS011;8368;48.772;8.754;2023-12-22T04:10:16;4.13;;;1.13;;
16510;SDS011;8368;48.772;8.754;2023-12-22T04:12:42;2.27;;;0.93;;
16510;SDS011;8368;48.772;8.754;2023-12-22T04:15:08;1.43;;;0.93;;
16510;SDS011;8368;48.772;8.754;2023-12-22T04:17:34;2.80;;;1.00;;
16510;SDS011;8368;48.772;8.754;2023-12-22T04:19:59;5.23;;;1.20;;
16510;SDS011;8368;48.772;8.754;2023-12-22T04:22:25;6.90;;;1.20;;
16510;SDS011;8368;48.772;8.754;2023-12-22T04:24:50;2.63;;;0.80;;
16510;SDS011;8368;48.772;8.754;2023-12-22T04:27:16;4.40;;;1.20;;
16510;SDS011;8368;48.772;8.754;2023-12-22T04:29:41;3.17;;;1.10;;
16510;SDS011;8368;48.772;8.754;2023-12-22T04:32:07;3.83;;;0.80;;
16510;SDS011;8368;48.772;8.754;2023-12-22T04:34:32;1.80;;;0.70;;
16510;SDS011;8368;48.772;8.754;2023-12-22T04:36:57;1.87;;;0.80;;
16510;SDS011;8368;48.772;8.754;2023-12-22T04:39:23;3.27;;;1.17;;
16510;SDS011;8368;48.772;8.754;2023-12-22T04:41:48;1.30;;;1.07;;
16510;SDS011;8368;48.772;8.754;2023-12-22T04:44:14;6.57;;;1.20;;
16510;SDS011;8368;48.772;8.754;2023-12-22T04:46:39;3.13;;;1.20;;
16510;SDS011;8368;48.772;8.754;2023-12-22T04:49:05;3.13;;;1.10;;
16510;SDS011;8368;48.772;8.754;2023-12-22T04:51:30;6.43;;;1.40;;
16510;SDS011;8368;48.772;8.754;2023-12-22T04:53:56;4.30;;;1.10;;
16510;SDS011;8368;48.772;8.754;2023-12-22T04:56:21;3.50;;;1.53;;
16510;SDS011;8368;48.772;8.754;2023-12-22T04:58:47;8.47;;;1.20;;
16510;SDS011;8368;48.772;8.754;2023-12-22T05:01:13;5.53;;;1.40;;
16510;SDS011;8368;48.772;8.754;2023-12-22T05:03:38;4.97;;;1.87;;
16510;SDS011;8368;48.772;8.754;2023-12-22T05:06:04;12.70;;;1.77;;
16510;SDS011;8368;48.772;8.754;2023-12-22T05:08:29;6.93;;;1.57;;
16510;SDS011;8368;48.772;8.754;2023-12-22T05:10:55;5.43;;;2.07;;
16510;SDS011;8368;48.772;8.754;2023-12-22T05:13:20;9.90;;;2.50;;
16510;SDS011;8368;48.772;8.754;2023-12-22T05:15:46;5.60;;;1.70;;
16510;SDS011;8368;48.772;8.754;2023-12-22T05:18:11;10.47;;;1.57;;
16510;SDS011;8368;48.772;8.754;2023-12-22T05:20:37;8.20;;;2.00;;
16510;SDS011;8368;48.772;8.754;2023-12-22T05:23:02;7.57;;;1.60;;
16510;SDS011;8368;48.772;8.754;2023-12-22T05:25:28;8.50;;;1.87;;
16510;SDS011;8368;48.772;8.754;2023-12-22T05:27:54;8.97;;;1.87;;
16510;SDS011;8368;48.772;8.754;2023-12-22T05:30:19;6.73;;;1.57;;
16510;SDS011;8368;48.772;8.754;2023-12-22T05:32:45;3.50;;;1.37;;
16510;SDS011;8368;48.772;8.754;2023-12-22T05:35:10;9.37;;;1.93;;
16510;SDS011;8368;48.772;8.754;2023-12-22T05:37:36;7.13;;;1.13;;
16510;SDS011;8368;48.772;8.754;2023-12-22T05:40:02;4.93;;;1.20;;
16510;SDS011;8368;48.772;8.754;2023-12-22T05:42:28;6.30;;;1.43;;
16510;SDS011;8368;48.772;8.754;2023-12-22T05:44:53;2.93;;;1.40;;
16510;SDS011;8368;48.772;8.754;2023-12-22T05:47:19;3.57;;;0.93;;
16510;SDS011;8368;48.772;8.754;2023-12-22T05:49:45;8.63;;;2.23;;
16510;SDS011;8368;48.772;8.754;2023-12-22T05:52:11;7.80;;;1.70;;
16510;SDS011;8368;48.772;8.754;2023-12-22T05:54:37;3.37;;;1.63;;
16510;SDS011;8368;48.772;8.754;2023-12-22T05:57:03;6.87;;;2.13;;
16510;SDS011;8368;48.772;8.754;2023-12-22T05:59:31;7.60;;;1.40;;
16510;SDS011;8368;48.772;8.754;2023-12-22T06:01:57;5.57;;;1.53;;
16510;SDS011;8368;48.772;8.754;2023-12-22T06:04:26;3.93;;;1.43;;
16510;SDS011;8368;48.772;8.754;2023-12-22T06:06:52;3.63;;;1.47;;
16510;SDS011;8368;48.772;8.754;2023-12-22T06:09:18;4.97;;;1.67;;
16510;SDS011;8368;48.772;8.754;2023-12-22T06:11:46;5.23;;;1.83;;
16510;SDS011;8368;48.772;8.754;2023-12-22T06:14:11;4.07;;;2.07;;
16510;SDS011;8368;48.772;8.754;2023-12-22T06:16:37;4.70;;;1.27;;
16510;SDS011;8368;48.772;8.754;2023-12-22T06:19:02;5.00;;;1.33;;
16510;SDS011;8368;48.772;8.754;2023-12-22T06:21:28;4.87;;;1.20;;
16510;SDS011;8368;48.772;8.754;2023-12-22T06:23:54;3.30;;;1.23;;
16510;SDS011;8368;48.772;8.754;2023-12-22T06:26:19;9.90;;;2.10;;
16510;SDS011;8368;48.772;8.754;2023-12-22T06:28:45;2.47;;;1.10;;
16510;SDS011;8368;48.772;8.754;2023-12-22T06:31:17;2.53;;;1.00;;
16510;SDS011;8368;48.772;8.754;2023-12-22T06:33:44;5.07;;;1.60;;
16510;SDS011;8368;48.772;8.754;2023-12-22T06:36:17;3.77;;;1.30;;
16510;SDS011;8368;48.772;8.754;2023-12-22T06:38:44;9.10;;;1.53;;
16510;SDS011;8368;48.772;8.754;2023-12-22T06:41:18;5.63;;;1.73;;
16510;SDS011;8368;48.772;8.754;2023-12-22T06:43:50;3.03;;;1.30;;
16510;SDS011;8368;48.772;8.754;2023-12-22T06:46:20;5.37;;;1.87;;
16510;SDS011;8368;48.772;8.754;2023-12-22T06:48:53;4.20;;;0.93;;
16510;SDS011;8368;48.772;8.754;2023-12-22T06:51:21;4.57;;;1.90;;
16510;SDS011;8368;48.772;8.754;2023-12-22T06:54:00;9.53;;;1.67;;
16510;SDS011;8368;48.772;8.754;2023-12-22T06:56:27;7.63;;;1.87;;
16510;SDS011;8368;48.772;8.754;2023-12-22T06:58:55;7.67;;;1.77;;
16510;SDS011;8368;48.772;8.754;2023-12-22T07:01:26;2.37;;;1.57;;
16510;SDS011;8368;48.772;8.754;2023-12-22T07:03:53;4.83;;;1.27;;
16510;SDS011;8368;48.772;8.754;2023-12-22T07:06:19;10.67;;;1.77;;
16510;SDS011;8368;48.772;8.754;2023-12-22T07:08:45;5.37;;;1.20;;
16510;SDS011;8368;48.772;8.754;2023-12-22T07:11:19;8.63;;;2.47;;
16510;SDS011;8368;48.772;8.754;2023-12-22T07:13:45;11.17;;;1.80;;
16510;SDS011;8368;48.772;8.754;2023-12-22T07:16:11;6.27;;;1.63;;
16510;SDS011;8368;48.772;8.754;2023-12-22T07:18:37;8.47;;;1.90;;
16510;SDS011;8368;48.772;8.754;2023-12-22T07:21:03;6.07;;;0.97;;
16510;SDS011;8368;48.772;8.754;2023-12-22T07:23:28;6.27;;;1.40;;
16510;SDS011;8368;48.772;8.754;2023-12-22T07:25:54;2.47;;;1.80;;
16510;SDS011;8368;48.772;8.754;2023-12-22T07:28:19;9.13;;;1.37;;
16510;SDS011;8368;48.772;8.754;2023-12-22T07:30:45;5.13;;;1.27;;
16510;SDS011;8368;48.772;8.754;2023-12-22T07:33:10;7.00;;;1.70;;
16510;SDS011;8368;48.772;8.754;2023-12-22T07:35:36;4.90;;;1.30;;
16510;SDS011;8368;48.772;8.754;2023-12-22T07:38:01;3.80;;;1.27;;
16510;SDS011;8368;48.772;8.754;2023-12-22T07:40:30;4.23;;;1.47;;
16510;SDS011;8368;48.772;8.754;2023-12-22T07:42:56;2.83;;;1.20;;
16510;SDS011;8368;48.772;8.754;2023-12-22T07:45:21;3.50;;;1.60;;
16510;SDS011;8368;48.772;8.754;2023-12-22T07:47:47;7.23;;;1.63;;
16510;SDS011;8368;48.772;8.754;2023-12-22T07:50:13;1.97;;;0.93;;
16510;SDS011;8368;48.772;8.754;2023-12-22T07:52:38;6.73;;;1.50;;
16510;SDS011;8368;48.772;8.754;2023-12-22T07:55:07;7.40;;;1.60;;
16510;SDS011;8368;48.772;8.754;2023-12-22T07:57:37;8.03;;;1.83;;
16510;SDS011;8368;48.772;8.754;2023-12-22T08:00:04;7.93;;;1.40;;
16510;SDS011;8368;48.772;8.754;2023-12-22T08:02:30;11.40;;;2.07;;
16510;SDS011;8368;48.772;8.754;2023-12-22T08:04:56;9.77;;;1.83;;
16510;SDS011;8368;48.772;8.754;2023-12-22T08:07:21;12.67;;;1.93;;
16510;SDS011;8368;48.772;8.754;2023-12-22T08:09:47;11.20;;;1.90;;
16510;SDS011;8368;48.772;8.754;2023-12-22T08:12:13;5.03;;;1.60;;
16510;SDS011;8368;48.772;8.754;2023-12-22T08:14:38;4.43;;;1.40;;
16510;SDS011;8368;48.772;8.754;2023-12-22T08:17:04;4.87;;;1.77;;
16510;SDS011;8368;48.772;8.754;2023-12-22T08:19:29;7.67;;;2.00;;
16510;SDS011;8368;48.772;8.754;2023-12-22T08:21:55;10.43;;;2.70;;
16510;SDS011;8368;48.772;8.754;2023-12-22T08:24:20;6.60;;;1.73;;
16510;SDS011;8368;48.772;8.754;2023-12-22T08:26:46;11.20;;;2.20;;
16510;SDS011;8368;48.772;8.754;2023-12-22T08:29:12;9.70;;;2.10;;
16510;SDS011;8368;48.772;8.754;2023-12-22T08:31:37;5.50;;;1.70;;
16510;SDS011;8368;48.772;8.754;2023-12-22T08:34:03;4.70;;;1.30;;
16510;SDS011;8368;48.772;8.754;2023-12-22T08:36:28;2.50;;;0.70;;
16510;SDS011;8368;48.772;8.754;2023-12-22T08:38:54;4.73;;;1.50;;
16510;SDS011;8368;48.772;8.754;2023-12-22T08:41:19;9.53;;;2.10;;
16510;SDS011;8368;48.772;8.754;2023-12-22T08:43:45;8.57;;;1.67;;
16510;SDS011;8368;48.772;8.754;2023-12-22T08:46:10;7.40;;;1.70;;
16510;SDS011;8368;48.772;8.754;2023-12-22T08:48:37;10.70;;;2.27;;
16510;SDS011;8368;48.772;8.754;2023-12-22T08:51:03;7.80;;;1.80;;
16510;SDS011;8368;48.772;8.754;2023-12-22T08:53:29;7.97;;;2.00;;
16510;SDS011;8368;48.772;8.754;2023-12-22T08:55:58;8.00;;;2.10;;
16510;SDS011;8368;48.772;8.754;2023-12-22T08:58:27;10.10;;;2.07;;
16510;SDS011;8368;48.772;8.754;2023-12-22T09:00:52;11.87;;;2.37;;
16510;SDS011;8368;48.772;8.754;2023-12-22T09:03:18;13.90;;;2.13;;
16510;SDS011;8368;48.772;8.754;2023-12-22T09:05:43;8.50;;;2.00;;
16510;SDS011;8368;48.772;8.754;2023-12-22T09:08:09;10.37;;;2.00;;
16510;SDS011;8368;48.772;8.754;2023-12-22T09:10:34;7.40;;;1.73;;
16510;SDS011;8368;48.772;8.754;2023-12-22T09:13:00;8.83;;;1.80;;
16510;SDS011;8368;48.772;8.754;2023-12-22T09:15:26;5.00;;;1.40;;
16510;SDS011;8368;48.772;8.754;2023-12-22T09:17:52;10.80;;;2.67;;
16510;SDS011;8368;48.772;8.754;2023-12-22T09:20:19;10.27;;;2.20;;
16510;SDS011;8368;48.772;8.754;2023-12-22T09:22:44;8.63;;;2.10;;
16510;SDS011;8368;48.772;8.754;2023-12-22T09:25:10;12.70;;;2.20;;
16510;SDS011;8368;48.772;8.754;2023-12-22T09:27:35;10.77;;;2.23;;
16510;SDS011;8368;48.772;8.754;2023-12-22T09:30:01;15.80;;;2.17;;
16510;SDS011;8368;48.772;8.754;2023-12-22T09:32:27;10.80;;;2.00;;
16510;SDS011;8368;48.772;8.754;2023-12-22T09:34:53;9.47;;;2.10;;
16510;SDS011;8368;48.772;8.754;2023-12-22T09:37:20;10.83;;;2.00;;
16510;SDS011;8368;48.772;8.754;2023-12-22T09:39:45;10.60;;;1.47;;
16510;SDS011;8368;48.772;8.754;2023-12-22T09:42:11;9.77;;;1.77;;
16510;SDS011;8368;48.772;8.754;2023-12-22T09:44:36;12.93;;;2.37;;
16510;SDS011;8368;48.772;8.754;2023-12-22T09:47:04;11.10;;;2.13;;
16510;SDS011;8368;48.772;8.754;2023-12-22T09:49:32;14.47;;;2.40;;
16510;SDS011;8368;48.772;8.754;2023-12-22T09:51:59;11.20;;;1.80;;
16510;SDS011;8368;48.772;8.754;2023-12-22T09:54:26;11.00;;;1.80;;
16510;SDS011;8368;48.772;8.754;2023-12-22T09:56:51;9.20;;;2.40;;
16510;SDS011;8368;48.772;8.754;2023-12-22T09:59:17;9.20;;;1.87;;
16510;SDS011;8368;48.772;8.754;2023-12-22T10:01:46;11.73;;;2.03;;
16510;SDS011;8368;48.772;8.754;2023-12-22T10:04:13;10.40;;;2.20;;
16510;SDS011;8368;48.772;8.754;2023-12-22T10:06:39;7.47;;;1.63;;
16510;SDS011;8368;48.772;8.754;2023-12-22T10:09:05;11.47;;;2.67;;
16510;SDS011;8368;48.772;8.754;2023-12-22T10:11:33;10.97;;;1.90;;
16510;SDS011;8368;48.772;8.754;2023-12-22T10:14:01;7.73;;;2.57;;
16510;SDS011;8368;48.772;8.754;2023-12-22T10:16:27;12.37;;;2.10;;
16510;SDS011;8368;48.772;8.754;2023-12-22T10:18:53;7.87;;;1.93;;
16510;SDS011;8368;48.772;8.754;2023-12-22T10:21:19;5.80;;;2.23;;
16510;SDS011;8368;48.772;8.754;2023-12-22T10:23:44;8.00;;;2.00;;
16510;SDS011;8368;48.772;8.754;2023-12-22T10:26:13;6.87;;;2.13;;
16510;SDS011;8368;48.772;8.754;2023-12-22T10:28:38;8.97;;;1.87;;
16510;SDS011;8368;48.772;8.754;2023-12-22T10:31:06;7.27;;;1.43;;
16510;SDS011;8368;48.772;8.754;2023-12-22T10:33:32;8.13;;;1.97;;
16510;SDS011;8368;48.772;8.754;2023-12-22T10:35:58;6.23;;;1.57;;
16510;SDS011;8368;48.772;8.754;2023-12-22T10:38:25;2.77;;;1.30;;
16510;SDS011;8368;48.772;8.754;2023-12-22T10:40:52;6.17;;;1.00;;
16510;SDS011;8368;48.772;8.754;2023-12-22T10:43:18;7.70;;;1.50;;
16510;SDS011;8368;48.772;8.754;2023-12-22T10:45:43;3.37;;;1.70;;
16510;SDS011;8368;48.772;8.754;2023-12-22T10:48:10;6.60;;;1.37;;
16510;SDS011;8368;48.772;8.754;2023-12-22T10:50:35;5.03;;;1.17;;
16510;SDS011;8368;48.772;8.754;2023-12-22T10:53:01;5.23;;;1.53;;
16510;SDS011;8368;48.772;8.754;2023-12-22T10:55:30;5.77;;;0.90;;
16510;SDS011;8368;48.772;8.754;2023-12-22T10:57:56;5.30;;;1.30;;
16510;SDS011;8368;48.772;8.754;2023-12-22T11:00:25;3.30;;;1.47;;
16510;SDS011;8368;48.772;8.754;2023-12-22T11:02:51;2.80;;;1.03;;
16510;SDS011;8368;48.772;8.754;2023-12-22T11:05:23;5.63;;;1.20;;
16510;SDS011;8368;48.772;8.754;2023-12-22T11:07:52;1.47;;;0.90;;
16510;SDS011;8368;48.772;8.754;2023-12-22T11:10:20;5.20;;;1.40;;
16510;SDS011;8368;48.772;8.754;2023-12-22T11:12:46;5.17;;;1.57;;
16510;SDS011;8368;48.772;8.754;2023-12-22T11:15:13;2.27;;;1.17;;
16510;SDS011;8368;48.772;8.754;2023-12-22T11:17:40;5.07;;;1.10;;
16510;SDS011;8368;48.772;8.754;2023-12-22T11:20:10;4.27;;;1.17;;
16510;SDS011;8368;48.772;8.754;2023-12-22T11:22:38;3.13;;;1.40;;
16510;SDS011;8368;48.772;8.754;2023-12-22T11:25:05;1.10;;;0.80;;
16510;SDS011;8368;48.772;8.754;2023-12-22T11:27:33;2.93;;;1.53;;
16510;SDS011;8368;48.772;8.754;2023-12-22T11:30:01;1.30;;;0.77;;
16510;SDS011;8368;48.772;8.754;2023-12-22T11:32:27;1.23;;;0.97;;
16510;SDS011;8368;48.772;8.754;2023-12-22T11:34:54;1.73;;;0.93;;
16510;SDS011;8368;48.772;8.754;2023-12-22T11:37:21;1.97;;;0.80;;
16510;SDS011;8368;48.772;8.754;2023-12-22T11:39:46;3.23;;;1.10;;
16510;SDS011;8368;48.772;8.754;2023-12-22T11:42:17;1.50;;;0.93;;
16510;SDS011;8368;48.772;8.754;2023-12-22T11:44:46;1.33;;;0.83;;
16510;SDS011;8368;48.772;8.754;2023-12-22T11:47:11;1.73;;;0.80;;
16510;SDS011;8368;48.772;8.754;2023-12-22T11:49:39;2.20;;;0.60;;
16510;SDS011;8368;48.772;8.754;2023-12-22T11:52:09;0.80;;;0.80;;
16510;SDS011;8368;48.772;8.754;2023-12-22T12:02:54;2.20;;;0.60;;
16510;SDS011;8368;48.772;8.754;2023-12-22T12:05:20;0.50;;;0.30;;
16510;SDS011;8368;48.772;8.754;2023-12-22T12:07:46;2.00;;;0.50;;
16510;SDS011;8368;48.772;8.754;2023-12-22T12:13:31;1.03;;;0.70;;
16510;SDS011;8368;48.772;8.754;2023-12-22T12:15:50;0.33;;;0.33;;
16510;SDS011;8368;48.772;8.754;2023-12-22T12:18:17;0.30;;;0.30;;
16510;SDS011;8368;48.772;8.754;2023-12-22T12:20:47;0.60;;;0.30;;
16510;SDS011;8368;48.772;8.754;2023-12-22T12:23:14;0.27;;;0.27;;
16510;SDS011;8368;48.772;8.754;2023-12-22T12:25:40;3.03;;;0.50;;
16510;SDS011;8368;48.772;8.754;2023-12-22T12:28:07;1.03;;;0.60;;
16510;SDS011;8368;48.772;8.754;2023-12-22T12:30:39;0.40;;;0.40;;
16510;SDS011;8368;48.772;8.754;2023-12-22T12:33:10;0.50;;;0.50;;
16510;SDS011;8368;48.772;8.754;2023-12-22T12:35:40;0.57;;;0.40;;
16510;SDS011;8368;48.772;8.754;2023-12-22T12:38:08;2.00;;;0.40;;
16510;SDS011;8368;48.772;8.754;2023-12-22T12:40:35;0.20;;;0.20;;
16510;SDS011;8368;48.772;8.754;2023-12-22T12:43:04;0.63;;;0.50;;
16510;SDS011;8368;48.772;8.754;2023-12-22T12:45:30;0.20;;;0.20;;
16510;SDS011;8368;48.772;8.754;2023-12-22T12:47:59;0.27;;;0.27;;
16510;SDS011;8368;48.772;8.754;2023-12-22T12:50:26;0.33;;;0.30;;
16510;SDS011;8368;48.772;8.754;2023-12-22T12:52:53;0.20;;;0.20;;
16510;SDS011;8368;48.772;8.754;2023-12-22T12:55:20;0.30;;;0.20;;
16510;SDS011;8368;48.772;8.754;2023-12-22T12:57:50;0.20;;;0.20;;
16510;SDS011;8368;48.772;8.754;2023-12-22T13:00:26;0.20;;;0.20;;
16510;SDS011;8368;48.772;8.754;2023-12-22T13:03:01;0.43;;;0.43;;
16510;SDS011;8368;48.772;8.754;2023-12-22T13:05:28;0.43;;;0.43;;
16510;SDS011;8368;48.772;8.754;2023-12-22T13:08:05;0.30;;;0.30;;
16510;SDS011;8368;48.772;8.754;2023-12-22T13:10:35;0.40;;;0.40;;
16510;SDS011;8368;48.772;8.754;2023-12-22T13:13:01;0.47;;;0.47;;
16510;SDS011;8368;48.772;8.754;2023-12-22T13:15:26;0.60;;;0.60;;
16510;SDS011;8368;48.772;8.754;2023-12-22T13:17:52;0.20;;;0.20;;
16510;SDS011;8368;48.772;8.754;2023-12-22T13:20:17;0.30;;;0.30;;
16510;SDS011;8368;48.772;8.754;2023-12-22T13:22:43;0.53;;;0.40;;
16510;SDS011;8368;48.772;8.754;2023-12-22T13:25:09;0.33;;;0.33;;
16510;SDS011;8368;48.772;8.754;2023-12-22T13:27:45;0.30;;;0.30;;
16510;SDS011;8368;48.772;8.754;2023-12-22T13:30:12;0.30;;;0.30;;
16510;SDS011;8368;48.772;8.754;2023-12-22T13:32:38;1.03;;;0.40;;
16510;SDS011;8368;48.772;8.754;2023-12-22T13:35:04;0.60;;;0.60;;
16510;SDS011;8368;48.772;8.754;2023-12-22T13:37:30;0.20;;;0.20;;
16510;SDS011;8368;48.772;8.754;2023-12-22T13:39:56;2.83;;;0.37;;
16510;SDS011;8368;48.772;8.754;2023-12-22T13:42:22;0.50;;;0.50;;
16510;SDS011;8368;48.772;8.754;2023-12-22T13:44:49;0.27;;;0.27;;
16510;SDS011;8368;48.772;8.754;2023-12-22T13:47:17;0.50;;;0.50;;
16510;SDS011;8368;48.772;8.754;2023-12-22T13:49:44;0.50;;;0.50;;
16510;SDS011;8368;48.772;8.754;2023-12-22T13:52:26;0.40;;;0.40;;
16510;SDS011;8368;48.772;8.754;2023-12-22T13:54:53;0.50;;;0.50;;
16510;SDS011;8368;48.772;8.754;2023-12-22T13:57:21;0.50;;;0.50;;
16510;SDS011;8368;48.772;8.754;2023-12-22T13:59:47;0.13;;;0.13;;
16510;SDS011;8368;48.772;8.754;2023-12-22T14:02:13;0.30;;;0.30;;
16510;SDS011;8368;48.772;8.754;2023-12-22T14:04:39;0.20;;;0.20;;
16510;SDS011;8368;48.772;8.754;2023-12-22T14:07:04;1.40;;;0.50;;
16510;SDS011;8368;48.772;8.754;2023-12-22T14:09:30;0.30;;;0.30;;
16510;SDS011;8368;48.772;8.754;2023-12-22T14:11:58;0.27;;;0.20;;
16510;SDS011;8368;48.772;8.754;2023-12-22T14:14:24;0.43;;;0.43;;
16510;SDS011;8368;48.772;8.754;2023-12-22T14:16:49;0.30;;;0.30;;
16510;SDS011;8368;48.772;8.754;2023-12-22T14:19:15;1.80;;;0.40;;
16510;SDS011;8368;48.772;8.754;2023-12-22T14:21:41;0.33;;;0.33;;
16510;SDS011;8368;48.772;8.754;2023-12-22T14:24:06;0.40;;;0.40;;
16510;SDS011;8368;48.772;8.754;2023-12-22T14:26:32;0.30;;;0.30;;
16510;SDS011;8368;48.772;8.754;2023-12-22T14:28:58;0.27;;;0.27;;
16510;SDS011;8368;48.772;8.754;2023-12-22T14:31:23;0.50;;;0.50;;
16510;SDS011;8368;48.772;8.754;2023-12-22T14:33:49;0.50;;;0.50;;
16510;SDS011;8368;48.772;8.754;2023-12-22T14:36:14;0.37;;;0.37;;
16510;SDS011;8368;48.772;8.754;2023-12-22T14:38:40;0.50;;;0.50;;
16510;SDS011;8368;48.772;8.754;2023-12-22T14:41:06;0.50;;;0.50;;
16510;SDS011;8368;48.772;8.754;2023-12-22T14:43:31;0.40;;;0.40;;
16510;SDS011;8368;48.772;8.754;2023-12-22T14:45:57;0.63;;;0.60;;
16510;SDS011;8368;48.772;8.754;2023-12-22T14:48:22;0.40;;;0.40;;
16510;SDS011;8368;48.772;8.754;2023-12-22T14:50:48;0.33;;;0.33;;
16510;SDS011;8368;48.772;8.754;2023-12-22T14:53:13;0.47;;;0.47;;
16510;SDS011;8368;48.772;8.754;2023-12-22T14:55:39;0.77;;;0.60;;
16510;SDS011;8368;48.772;8.754;2023-12-22T14:58:05;0.40;;;0.40;;
16510;SDS011;8368;48.772;8.754;2023-12-22T15:00:32;0.50;;;0.50;;
16510;SDS011;8368;48.772;8.754;2023-12-22T15:02:58;1.07;;;0.50;;
16510;SDS011;8368;48.772;8.754;2023-12-22T15:05:23;0.30;;;0.30;;
16510;SDS011;8368;48.772;8.754;2023-12-22T15:07:54;0.50;;;0.50;;
16510;SDS011;8368;48.772;8.754;2023-12-22T15:10:20;0.60;;;0.60;;